Time;durP1;ratioP1;P1;durP2;ratioP2;P2;SDS_P1;SDS_P2;PMS_P1;PMS_P2;Temp;Humidity;BMP_temperature;BMP_pressure;BME280_temperature;BME280_humidity;BME280_pressure;Samples;Min_cycle;Max_cycle;Signal;HPM_P1;HPM_P2
2022/08/04 00:02:14;;;;;;;0.40;0.40;;;22.70;57.20;;;;;;6211265;28;20091;-66
2022/08/04 00:05:34;;;;;;;0.50;0.47;;;22.70;57.20;;;;;;6224163;28;20042;-67
2022/08/04 00:08:48;;;;;;;0.43;0.43;;;22.70;57.20;;;;;;6228474;28;20068;-68
2022/08/04 00:11:52;;;;;;;0.30;0.30;;;22.70;57.20;;;;;;6243499;28;20341;-67
2022/08/04 00:14:57;;;;;;;0.40;0.40;;;22.70;57.20;;;;;;6223400;28;20467;-65
2022/08/04 00:18:03;;;;;;;0.40;0.40;;;22.70;57.20;;;;;;6222222;28;20042;-65
2022/08/04 00:21:05;;;;;;;0.73;0.47;;;22.70;57.20;;;;;;6243419;28;20026;-66
2022/08/04 00:24:07;;;;;;;0.38;0.35;;;22.70;57.20;;;;;;6229813;28;20046;-67
2022/08/04 00:27:07;;;;;;;0.63;0.50;;;22.70;57.20;;;;;;6217566;28;20022;-66
2022/08/04 00:30:08;;;;;;;0.52;0.50;;;22.70;57.20;;;;;;6218023;28;20689;-65
2022/08/04 00:33:10;;;;;;;0.63;0.43;;;22.80;57.30;;;;;;6218648;28;20021;-66
2022/08/04 00:36:11;;;;;;;0.40;0.40;;;22.70;57.20;;;;;;6218145;28;20097;-66
2022/08/04 00:39:15;;;;;;;0.20;0.20;;;22.70;57.20;;;;;;6229353;28;20025;-66
2022/08/04 00:42:52;;;;;;;0.40;0.40;;;22.70;57.20;;;;;;6243242;28;20025;-66
2022/08/04 00:46:15;;;;;;;0.50;0.40;;;22.70;57.20;;;;;;6218125;28;20037;-66
2022/08/04 00:49:44;;;;;;;0.80;0.40;;;22.70;57.20;;;;;;6227695;28;20575;-66
2022/08/04 00:52:54;;;;;;;0.65;0.47;;;22.70;57.20;;;;;;6242886;28;20467;-67
2022/08/04 00:56:14;;;;;;;0.57;0.50;;;22.70;57.20;;;;;;6217157;28;20034;-65
2022/08/04 00:59:42;;;;;;;0.50;0.50;;;22.70;57.20;;;;;;6225902;28;20026;-66
2022/08/04 01:02:48;;;;;;;0.43;0.40;;;22.70;57.20;;;;;;6216705;28;20030;-66
2022/08/04 01:06:07;;;;;;;0.60;0.50;;;22.70;57.30;;;;;;6238132;28;20040;-66
2022/08/04 01:09:33;;;;;;;0.55;0.50;;;22.70;57.30;;;;;;6235912;28;20507;-66
2022/08/04 01:13:12;;;;;;;0.47;0.47;;;22.70;57.20;;;;;;6217934;28;20030;-65
2022/08/04 01:16:16;;;;;;;0.30;0.30;;;22.80;57.30;;;;;;6191324;28;20088;-67
2022/08/04 01:19:38;;;;;;;0.75;0.40;;;22.80;57.30;;;;;;6204921;28;20495;-65
2022/08/04 01:23:00;;;;;;;0.50;0.30;;;22.70;57.30;;;;;;6241996;28;20053;-65
2022/08/04 01:26:47;;;;;;;0.65;0.55;;;22.70;57.30;;;;;;6222098;28;20040;-67
2022/08/04 01:29:57;;;;;;;0.50;0.40;;;22.70;57.20;;;;;;6226632;28;20017;-67
2022/08/04 01:33:03;;;;;;;0.47;0.47;;;22.80;57.30;;;;;;6225440;28;20056;-66
2022/08/04 01:36:05;;;;;;;0.85;0.63;;;22.70;57.30;;;;;;6216684;28;20036;-67
2022/08/04 01:39:39;;;;;;;0.70;0.60;;;22.70;57.30;;;;;;6219291;28;20022;-66
2022/08/04 01:42:29;;;;;;;0.60;0.60;;;22.70;57.30;;;;;;6241757;28;20030;-66
2022/08/04 01:45:30;;;;;;;0.50;0.50;;;22.70;57.30;;;;;;6228478;28;20104;-66
2022/08/04 01:48:33;;;;;;;0.47;0.47;;;22.80;57.30;;;;;;6216868;28;20062;-66
2022/08/04 01:51:39;;;;;;;2.13;0.50;;;22.80;57.30;;;;;;6237974;28;20030;-66
2022/08/04 01:54:42;;;;;;;0.45;0.45;;;22.70;57.30;;;;;;6235982;28;20335;-66
2022/08/04 01:57:46;;;;;;;0.80;0.60;;;22.70;57.30;;;;;;6215435;28;20033;-65
2022/08/04 02:00:56;;;;;;;0.73;0.60;;;22.70;57.30;;;;;;6215816;28;20113;-66
2022/08/04 02:03:57;;;;;;;0.88;0.60;;;22.70;57.30;;;;;;6193416;28;20042;-66
2022/08/04 02:07:06;;;;;;;0.52;0.50;;;22.70;57.30;;;;;;6238219;28;20049;-66
2022/08/04 02:10:28;;;;;;;0.40;0.40;;;22.70;57.30;;;;;;6240231;28;20026;-67
2022/08/04 02:13:42;;;;;;;0.38;0.38;;;22.70;57.30;;;;;;6221952;28;20160;-66
2022/08/04 02:16:51;;;;;;;0.50;0.50;;;22.70;57.30;;;;;;6239754;28;20029;-66
2022/08/04 02:20:04;;;;;;;0.57;0.52;;;22.70;57.30;;;;;;6243668;28;20057;-67
2022/08/04 02:23:08;;;;;;;0.40;0.40;;;22.70;57.30;;;;;;6221582;28;20056;-66
2022/08/04 02:26:15;;;;;;;0.63;0.60;;;22.80;57.30;;;;;;6235196;28;20028;-66
2022/08/04 02:29:23;;;;;;;0.50;0.40;;;22.80;57.30;;;;;;6247648;28;20120;-66
2022/08/04 02:32:32;;;;;;;0.60;0.60;;;22.70;57.30;;;;;;6224227;28;20547;-66
2022/08/04 02:35:38;;;;;;;0.95;0.57;;;22.80;57.30;;;;;;6221202;28;20390;-66
2022/08/04 02:39:03;;;;;;;0.55;0.52;;;22.80;57.30;;;;;;6221043;28;20025;-67
2022/08/04 02:42:04;;;;;;;0.85;0.65;;;22.80;57.30;;;;;;6239917;28;20013;-66
2022/08/04 02:45:06;;;;;;;0.70;0.43;;;22.80;57.30;;;;;;6246273;28;20041;-66
2022/08/04 02:48:08;;;;;;;0.60;0.50;;;22.70;57.30;;;;;;6237402;28;20080;-66
2022/08/04 02:51:11;;;;;;;0.75;0.57;;;22.70;57.30;;;;;;6231151;28;20054;-67
2022/08/04 02:54:16;;;;;;;0.70;0.52;;;22.80;57.40;;;;;;6246827;28;20017;-67
2022/08/04 02:57:17;;;;;;;1.10;0.70;;;22.70;57.30;;;;;;6226995;28;20061;-66
2022/08/04 03:00:18;;;;;;;0.60;0.60;;;22.70;57.30;;;;;;6220745;28;20104;-67
2022/08/04 03:03:29;;;;;;;0.77;0.70;;;22.70;57.40;;;;;;6245537;28;20029;-67
2022/08/04 03:06:38;;;;;;;0.60;0.60;;;22.80;57.40;;;;;;6235513;28;20033;-66
2022/08/04 03:09:42;;;;;;;0.60;0.57;;;22.70;57.30;;;;;;6220162;28;20026;-67
2022/08/04 03:13:09;;;;;;;0.70;0.60;;;22.80;57.30;;;;;;6239371;28;20063;-67
2022/08/04 03:17:01;;;;;;;0.93;0.60;;;22.70;57.30;;;;;;6238282;28;20108;-67
2022/08/04 03:20:07;;;;;;;1.17;0.77;;;22.80;57.40;;;;;;6210373;28;20030;-68
2022/08/04 03:23:20;;;;;;;0.70;0.60;;;22.70;57.30;;;;;;6240243;28;20565;-68
2022/08/04 03:26:29;;;;;;;0.70;0.50;;;22.80;57.40;;;;;;6228821;28;20026;-67
2022/08/04 03:29:59;;;;;;;0.73;0.70;;;22.80;57.40;;;;;;6244999;28;20025;-68
2022/08/04 03:33:18;;;;;;;0.70;0.57;;;22.80;57.30;;;;;;6220664;28;20485;-68
2022/08/04 03:36:46;;;;;;;0.50;0.50;;;22.80;57.40;;;;;;6219541;28;20018;-68
2022/08/04 03:40:22;;;;;;;0.50;0.50;;;22.70;57.30;;;;;;6219617;28;20022;-68
2022/08/04 03:43:43;;;;;;;;;;;22.80;57.40;;;;;;6239893;28;20485;-68
2022/08/04 03:47:17;;;;;;;0.70;0.60;;;22.70;57.30;;;;;;6233167;28;19979;-68
2022/08/04 03:53:07;;;;;;;0.60;0.50;;;22.80;57.40;;;;;;6219628;28;20034;-68
2022/08/04 03:54:33;;;;;;;0.82;0.77;;;22.80;57.40;;;;;;6243336;28;20037;-68
2022/08/04 03:57:46;;;;;;;0.75;0.70;;;22.80;57.40;;;;;;6232270;28;20412;-68
2022/08/04 04:01:20;;;;;;;0.98;0.70;;;22.70;57.30;;;;;;6219685;28;20046;-67
2022/08/04 04:04:57;;;;;;;0.60;0.60;;;22.80;57.40;;;;;;6196590;28;20477;-68
2022/08/04 04:08:03;;;;;;;0.90;0.70;;;22.80;57.40;;;;;;6223004;28;20471;-68
2022/08/04 04:11:10;;;;;;;0.80;0.60;;;22.80;57.40;;;;;;6244792;28;20028;-67
2022/08/04 04:14:41;;;;;;;1.17;0.70;;;22.80;57.40;;;;;;6222437;28;20030;-68
2022/08/04 04:17:57;;;;;;;0.60;0.55;;;22.70;57.30;;;;;;6229351;28;20029;-68
2022/08/04 04:21:13;;;;;;;0.70;0.70;;;22.80;57.40;;;;;;6243686;28;20671;-69
2022/08/04 04:24:24;;;;;;;0.57;0.57;;;22.80;57.40;;;;;;6222478;28;20396;-68
2022/08/04 04:27:38;;;;;;;0.60;0.60;;;22.80;57.40;;;;;;6226456;28;20147;-68
2022/08/04 04:31:20;;;;;;;1.05;0.70;;;22.80;57.40;;;;;;6243752;28;20029;-68
2022/08/04 04:34:42;;;;;;;0.60;0.60;;;22.80;57.40;;;;;;6218309;28;20495;-68
2022/08/04 04:38:24;;;;;;;0.70;0.70;;;22.80;57.40;;;;;;6226099;28;20029;-68
2022/08/04 04:41:52;;;;;;;0.98;0.80;;;22.70;57.30;;;;;;6221117;28;20451;-68
2022/08/04 04:45:09;;;;;;;0.65;0.50;;;22.80;57.40;;;;;;6218305;28;20045;-68
2022/08/04 04:48:31;;;;;;;1.02;0.80;;;22.80;57.40;;;;;;6227461;28;20040;-68
2022/08/04 04:51:50;;;;;;;0.70;0.60;;;22.80;57.40;;;;;;6221321;28;20396;-67
2022/08/04 04:55:23;;;;;;;0.68;0.50;;;22.80;57.40;;;;;;6228235;28;20087;-68
2022/08/04 04:58:26;;;;;;;0.60;0.60;;;22.80;58.10;;;;;;6237113;28;20018;-68
2022/08/04 05:01:47;;;;;;;4.13;1.63;;;22.70;57.40;;;;;;6218534;28;20490;-68
2022/08/04 05:05:16;;;;;;;3.10;1.20;;;22.80;58.40;;;;;;6234560;28;20033;-68
2022/08/04 05:08:41;;;;;;;1.75;1.40;;;22.80;57.80;;;;;;6233671;28;20034;-67
2022/08/04 05:11:56;;;;;;;1.95;1.50;;;22.70;57.80;;;;;;6238537;28;20404;-68
2022/08/04 05:15:00;;;;;;;1.67;1.20;;;22.70;57.70;;;;;;6221233;28;20497;-68
2022/08/04 05:18:05;;;;;;;1.05;0.90;;;22.70;57.60;;;;;;6222285;28;20029;-68
2022/08/04 05:21:17;;;;;;;;;;;22.80;57.70;;;;;;6243313;28;20113;-67
2022/08/04 05:24:21;;;;;;;2.50;1.20;;;22.80;57.70;;;;;;6226256;28;20306;-68
2022/08/04 05:27:30;;;;;;;1.33;1.10;;;22.70;57.60;;;;;;6226719;28;20014;-68
2022/08/04 05:30:37;;;;;;;2.25;0.90;;;22.80;57.60;;;;;;6218187;28;20277;-68
2022/08/04 05:33:54;;;;;;;1.48;1.10;;;22.80;57.60;;;;;;6215973;28;20022;-68
2022/08/04 05:37:02;;;;;;;0.85;0.85;;;22.80;57.60;;;;;;6222988;28;20021;-68
2022/08/04 05:40:05;;;;;;;1.50;0.90;;;22.80;57.60;;;;;;6234991;28;20034;-67
2022/08/04 05:43:07;;;;;;;1.48;1.05;;;22.80;57.60;;;;;;6239498;28;20025;-68
2022/08/04 05:46:09;;;;;;;1.30;1.00;;;22.80;57.60;;;;;;6216469;28;20125;-68
2022/08/04 05:49:11;;;;;;;1.33;1.10;;;22.80;57.60;;;;;;6225711;28;20017;-67
2022/08/04 05:52:12;;;;;;;1.75;1.33;;;22.80;57.60;;;;;;6242752;28;20552;-67
2022/08/04 05:55:15;;;;;;;1.25;0.95;;;22.80;57.50;;;;;;6224041;28;20041;-68
2022/08/04 05:58:17;;;;;;;1.02;0.93;;;22.80;57.60;;;;;;6207963;28;20445;-67
2022/08/04 06:01:19;;;;;;;1.20;1.05;;;22.80;57.60;;;;;;6202493;28;20567;-67
2022/08/04 06:04:21;;;;;;;1.73;1.10;;;22.70;57.50;;;;;;6218510;28;20076;-68
2022/08/04 06:07:25;;;;;;;1.42;0.82;;;22.80;57.60;;;;;;6205091;28;20030;-68
2022/08/04 06:10:26;;;;;;;7.05;1.30;;;22.80;57.50;;;;;;6206451;28;20732;-67
2022/08/04 06:13:48;;;;;;;1.52;1.10;;;22.80;57.50;;;;;;6218406;28;20026;-67
2022/08/04 06:16:51;;;;;;;2.10;1.13;;;22.80;58.30;;;;;;6210299;28;20037;-67
2022/08/04 06:19:53;;;;;;;2.55;1.40;;;22.80;58.40;;;;;;6210751;28;20026;-68
2022/08/04 06:22:57;;;;;;;3.65;1.20;;;22.90;58.50;;;;;;6196043;28;20130;-68
2022/08/04 06:26:00;;;;;;;4.73;1.30;;;22.90;58.30;;;;;;6226497;28;20085;-68
2022/08/04 06:29:02;;;;;;;1.10;1.00;;;22.90;58.60;;;;;;6216944;28;20040;-69
2022/08/04 06:32:25;;;;;;;3.67;1.20;;;22.90;58.30;;;;;;6202033;28;20488;-68
2022/08/04 06:35:27;;;;;;;2.17;1.00;;;23.00;58.00;;;;;;6218855;28;20026;-69
2022/08/04 06:38:30;;;;;;;4.40;1.48;;;23.00;58.10;;;;;;6234051;28;20049;-68
2022/08/04 06:41:32;;;;;;;2.80;1.17;;;23.00;57.90;;;;;;6222315;28;20391;-68
2022/08/04 06:44:33;;;;;;;1.20;1.10;;;23.00;57.90;;;;;;6223635;28;20029;-69
2022/08/04 06:47:37;;;;;;;1.60;1.10;;;23.00;57.80;;;;;;6224629;28;20030;-68
2022/08/04 06:50:40;;;;;;;2.15;1.05;;;23.10;57.90;;;;;;6233155;28;20389;-68
2022/08/04 06:53:40;;;;;;;2.58;1.17;;;23.10;57.60;;;;;;6203359;28;20673;-68
2022/08/04 06:56:44;;;;;;;4.18;1.00;;;23.10;57.70;;;;;;6226274;28;20029;-69
2022/08/04 06:59:48;;;;;;;2.53;1.17;;;23.10;57.50;;;;;;6233849;28;20026;-69
2022/08/04 07:02:50;;;;;;;2.03;1.30;;;23.20;57.50;;;;;;6224995;28;20029;-69
2022/08/04 07:05:51;;;;;;;3.22;1.10;;;23.20;57.50;;;;;;6237967;28;20068;-69
2022/08/04 07:08:53;;;;;;;1.67;0.98;;;23.20;57.40;;;;;;6213712;28;20026;-69
2022/08/04 07:11:54;;;;;;;4.93;1.38;;;23.20;57.40;;;;;;6219646;28;20511;-69
2022/08/04 07:14:56;;;;;;;2.00;1.40;;;23.20;57.30;;;;;;6227474;28;20508;-69
2022/08/04 07:17:58;;;;;;;1.20;1.00;;;23.30;57.20;;;;;;6248911;28;20111;-66
2022/08/04 07:20:59;;;;;;;2.10;1.20;;;23.40;57.20;;;;;;6236326;28;20492;-69
2022/08/04 07:24:00;;;;;;;2.95;1.17;;;23.40;57.30;;;;;;6223281;28;20099;-69
2022/08/04 07:27:03;;;;;;;1.92;1.30;;;23.40;57.30;;;;;;6243641;28;20026;-69
2022/08/04 07:30:05;;;;;;;3.22;1.38;;;23.40;57.30;;;;;;6218796;28;20014;-69
2022/08/04 07:33:07;;;;;;;4.32;1.35;;;23.40;57.20;;;;;;6230257;28;20129;-69
2022/08/04 07:36:08;;;;;;;1.92;1.23;;;23.40;57.10;;;;;;6223409;28;20046;-68
2022/08/04 07:39:08;;;;;;;2.33;1.20;;;23.40;57.10;;;;;;6211383;28;20030;-68
2022/08/04 07:42:10;;;;;;;1.23;0.95;;;23.40;57.10;;;;;;6236344;28;20022;-69
2022/08/04 07:45:11;;;;;;;1.48;0.93;;;23.40;57.00;;;;;;6245224;28;20032;-68
2022/08/04 07:48:13;;;;;;;1.42;1.13;;;23.40;57.00;;;;;;6222964;28;20026;-69
2022/08/04 07:51:15;;;;;;;1.40;0.95;;;23.40;56.90;;;;;;6221383;28;20030;-69
2022/08/04 07:54:17;;;;;;;2.35;1.30;;;23.40;56.90;;;;;;6223034;28;20029;-69
2022/08/04 07:57:19;;;;;;;1.40;1.00;;;23.40;56.90;;;;;;6241149;28;20029;-69
2022/08/04 08:00:20;;;;;;;1.83;1.25;;;23.40;56.80;;;;;;6242665;28;20033;-69
2022/08/04 08:03:22;;;;;;;1.92;1.13;;;23.40;57.00;;;;;;6247604;28;20025;-68
2022/08/04 08:06:24;;;;;;;2.00;1.38;;;23.50;57.10;;;;;;6237908;28;20026;-68
2022/08/04 08:09:25;;;;;;;1.67;1.10;;;23.50;57.00;;;;;;6222756;28;20088;-68
2022/08/04 08:12:26;;;;;;;3.17;1.13;;;23.50;56.90;;;;;;6239439;28;20028;-69
2022/08/04 08:15:27;;;;;;;2.45;1.10;;;23.50;56.90;;;;;;6210004;28;20033;-68
2022/08/04 08:18:29;;;;;;;3.67;1.10;;;23.40;56.80;;;;;;6247124;28;20516;-68
2022/08/04 08:21:30;;;;;;;1.85;1.20;;;23.50;56.90;;;;;;6238945;28;20018;-69
2022/08/04 08:24:34;;;;;;;1.75;1.23;;;23.40;56.80;;;;;;6221716;28;20085;-69
2022/08/04 08:27:37;;;;;;;1.10;1.00;;;23.40;56.80;;;;;;6229535;28;20030;-67
2022/08/04 08:30:38;;;;;;;3.83;1.00;;;23.50;56.80;;;;;;6222208;28;20018;-68
2022/08/04 08:33:39;;;;;;;1.40;1.08;;;23.50;56.80;;;;;;6223736;28;20061;-67
2022/08/04 08:36:52;;;;;;;1.85;1.08;;;23.50;56.80;;;;;;6222149;28;20029;-68
2022/08/04 08:40:16;;;;;;;2.20;1.10;;;23.50;56.80;;;;;;6208579;28;20022;-68
2022/08/04 08:43:33;;;;;;;1.60;1.30;;;23.50;56.80;;;;;;6236733;28;20030;-68
2022/08/04 08:47:00;;;;;;;1.92;1.02;;;23.50;56.80;;;;;;6239437;28;20041;-68
2022/08/04 08:50:21;;;;;;;4.32;1.10;;;23.50;56.80;;;;;;6219068;28;20026;-67
2022/08/04 08:53:37;;;;;;;1.50;1.00;;;23.50;57.40;;;;;;6235223;28;20480;-68
2022/08/04 08:56:37;;;;;;;;;;;23.50;56.80;;;;;;6242015;28;20068;-68
2022/08/04 08:59:55;;;;;;;4.05;1.20;;;23.50;56.70;;;;;;6221635;28;19955;-68
2022/08/04 09:03:26;;;;;;;2.50;1.27;;;23.50;56.80;;;;;;6235289;28;20032;-68
2022/08/04 09:07:00;;;;;;;3.47;1.20;;;23.50;56.80;;;;;;6244530;28;20033;-68
2022/08/04 09:10:41;;;;;;;2.63;1.33;;;23.50;56.70;;;;;;6221159;28;20029;-68
2022/08/04 09:13:50;;;;;;;1.30;1.13;;;23.50;56.70;;;;;;6231820;28;20064;-68
2022/08/04 09:17:05;;;;;;;1.25;0.90;;;23.50;56.70;;;;;;6222725;28;20033;-68
2022/08/04 09:20:14;;;;;;;2.53;1.17;;;23.50;56.70;;;;;;6241329;28;20025;-68
2022/08/04 09:23:25;;;;;;;3.08;1.35;;;23.50;56.70;;;;;;6234926;28;20512;-67
2022/08/04 09:26:52;;;;;;;1.65;1.20;;;23.50;56.80;;;;;;6223152;28;20038;-67
2022/08/04 09:29:55;;;;;;;2.88;1.27;;;23.40;56.70;;;;;;6193435;28;20040;-68
2022/08/04 09:33:13;;;;;;;3.05;1.10;;;23.50;56.80;;;;;;6209326;28;20026;-68
2022/08/04 09:36:22;;;;;;;1.00;0.90;;;23.50;56.80;;;;;;6214112;28;20025;-68
2022/08/04 09:39:25;;;;;;;1.75;1.08;;;23.50;56.80;;;;;;6234860;28;20077;-68
2022/08/04 09:42:44;;;;;;;2.17;1.27;;;23.50;56.80;;;;;;6240602;28;20026;-68
2022/08/04 09:46:03;;;;;;;1.77;1.13;;;23.50;56.80;;;;;;6220400;28;20022;-67
2022/08/04 09:49:16;;;;;;;1.25;1.02;;;23.40;56.70;;;;;;6237871;28;20392;-68
2022/08/04 09:52:46;;;;;;;1.58;1.35;;;23.40;56.70;;;;;;6237589;28;20022;-68
2022/08/04 09:55:58;;;;;;;4.05;1.40;;;23.50;56.80;;;;;;6211642;28;20077;-68
2022/08/04 09:59:46;;;;;;;1.88;1.65;;;23.50;56.80;;;;;;6235738;28;20033;-68
2022/08/04 10:02:54;;;;;;;2.10;1.70;;;23.50;56.80;;;;;;6204719;28;20038;-67
2022/08/04 10:06:23;;;;;;;2.33;1.65;;;23.50;56.80;;;;;;6244955;28;20480;-68
2022/08/04 10:09:46;;;;;;;1.63;1.30;;;23.40;56.60;;;;;;6227739;28;20026;-68
2022/08/04 10:12:58;;;;;;;2.08;1.40;;;23.50;56.70;;;;;;6223825;28;20594;-67
2022/08/04 10:16:43;;;;;;;5.85;1.20;;;23.50;56.90;;;;;;6244814;28;20022;-68
2022/08/04 10:19:47;;;;;;;1.80;1.35;;;23.60;57.90;;;;;;6218598;28;20561;-67
2022/08/04 10:23:17;;;;;;;3.13;1.20;;;23.50;57.10;;;;;;6220543;28;20426;-67
2022/08/04 10:26:35;;;;;;;2.63;1.15;;;23.60;56.90;;;;;;6231790;28;20400;-68
2022/08/04 10:29:40;;;;;;;1.85;1.40;;;23.60;56.80;;;;;;6234017;28;20101;-67
2022/08/04 10:32:56;;;;;;;3.00;1.27;;;23.60;56.70;;;;;;6233427;28;20025;-67
2022/08/04 10:36:08;;;;;;;1.10;1.00;;;23.60;56.50;;;;;;6205005;28;20028;-67
2022/08/04 10:39:14;;;;;;;2.65;1.40;;;23.60;56.80;;;;;;6230831;28;20013;-67
2022/08/04 10:42:26;;;;;;;3.78;1.40;;;23.60;56.60;;;;;;6224073;28;20100;-68
2022/08/04 10:45:35;;;;;;;2.30;1.48;;;23.60;56.60;;;;;;6241987;28;20037;-67
2022/08/04 10:48:35;;;;;;;2.85;1.40;;;23.50;56.60;;;;;;6243837;28;20052;-68
2022/08/04 10:52:02;;;;;;;1.48;1.10;;;23.60;56.70;;;;;;6248176;28;20029;-67
2022/08/04 10:55:16;;;;;;;1.83;1.30;;;23.50;56.60;;;;;;6232221;28;20029;-67
2022/08/04 10:58:20;;;;;;;1.80;1.10;;;23.50;56.70;;;;;;6243418;28;20105;-68
2022/08/04 11:01:36;;;;;;;2.45;1.20;;;23.50;56.70;;;;;;6220223;28;20032;-67
2022/08/04 11:05:14;;;;;;;3.42;1.20;;;23.50;56.70;;;;;;6235443;28;20037;-67
2022/08/04 11:08:21;;;;;;;1.27;0.98;;;23.50;56.70;;;;;;6242841;28;20505;-67
2022/08/04 11:11:37;;;;;;;1.40;1.10;;;23.50;56.80;;;;;;6199109;28;20106;-67
2022/08/04 11:15:03;;;;;;;1.13;0.93;;;23.50;56.70;;;;;;6219265;28;20111;-67
2022/08/04 11:18:17;;;;;;;;;;;23.50;56.70;;;;;;6247895;28;20045;-67
2022/08/04 11:21:28;;;;;;;3.15;1.10;;;23.50;56.70;;;;;;6224375;28;19905;-68
2022/08/04 11:24:44;;;;;;;2.47;1.20;;;23.50;56.60;;;;;;6224389;28;20449;-67
2022/08/04 11:28:03;;;;;;;;;;;23.50;56.60;;;;;;6229214;28;20027;-68
2022/08/04 11:31:11;;;;;;;2.65;1.48;;;23.50;56.60;;;;;;6232257;28;20263;-67
2022/08/04 11:34:22;;;;;;;2.08;0.95;;;23.50;56.60;;;;;;6223186;28;20014;-68
2022/08/04 11:37:45;;;;;;;1.52;1.20;;;23.50;56.70;;;;;;6222697;28;20104;-67
2022/08/04 11:40:50;;;;;;;1.25;1.00;;;23.50;56.60;;;;;;6238287;28;20017;-67
2022/08/04 11:43:55;;;;;;;1.35;1.00;;;23.50;56.60;;;;;;6247264;28;20467;-68
2022/08/04 11:47:02;;;;;;;1.77;1.00;;;23.50;56.60;;;;;;6215828;28;20034;-67
2022/08/04 11:50:09;;;;;;;1.17;1.08;;;23.50;57.30;;;;;;6221940;28;20033;-67
2022/08/04 11:53:18;;;;;;;1.30;1.05;;;23.50;56.60;;;;;;6247252;28;20032;-67
2022/08/04 11:56:19;;;;;;;1.17;0.98;;;23.50;56.60;;;;;;6228254;28;20080;-68
2022/08/04 11:59:22;;;;;;;1.27;1.17;;;23.50;56.50;;;;;;6224889;28;20018;-66
2022/08/04 12:02:40;;;;;;;1.35;1.10;;;23.50;56.60;;;;;;6232834;28;20018;-67
2022/08/04 12:05:53;;;;;;;1.63;1.20;;;23.50;56.60;;;;;;6234910;28;20026;-67
2022/08/04 12:09:02;;;;;;;1.52;1.23;;;23.50;56.60;;;;;;6221697;28;20026;-68
2022/08/04 12:12:28;;;;;;;1.50;1.00;;;23.50;56.50;;;;;;6244087;28;20484;-67
2022/08/04 12:15:35;;;;;;;1.23;0.80;;;23.50;56.50;;;;;;6239656;28;20033;-67
2022/08/04 12:18:45;;;;;;;1.27;1.02;;;23.60;56.60;;;;;;6199129;28;20076;-68
2022/08/04 12:21:53;;;;;;;2.67;1.05;;;23.50;57.30;;;;;;6230387;28;20037;-68
2022/08/04 12:25:02;;;;;;;1.58;1.05;;;23.50;56.60;;;;;;6231583;28;20053;-68
2022/08/04 12:28:30;;;;;;;1.10;0.95;;;23.50;56.60;;;;;;6220379;28;20491;-67
2022/08/04 12:31:44;;;;;;;1.85;1.23;;;23.50;56.50;;;;;;6222494;28;20112;-68
2022/08/04 12:35:11;;;;;;;1.30;1.20;;;23.60;56.50;;;;;;6238395;28;20552;-68
2022/08/04 12:38:13;;;;;;;1.45;1.00;;;23.60;56.60;;;;;;6222027;28;20033;-68
2022/08/04 12:41:20;;;;;;;1.17;1.08;;;23.60;56.60;;;;;;6231309;28;20469;-68
2022/08/04 12:44:21;;;;;;;2.78;0.90;;;23.60;56.50;;;;;;6245487;28;20033;-67
2022/08/04 12:47:27;;;;;;;1.77;1.20;;;23.50;56.60;;;;;;6225372;28;20042;-69
2022/08/04 12:50:28;;;;;;;1.77;1.20;;;23.60;57.20;;;;;;6223599;28;20032;-68
2022/08/04 12:53:34;;;;;;;4.15;1.17;;;23.60;57.50;;;;;;6244675;28;20037;-68
2022/08/04 12:56:35;;;;;;;;;;;23.70;57.90;;;;;;6226904;28;20035;-68
2022/08/04 12:59:42;;;;;;;2.58;1.13;;;23.70;57.60;;;;;;6244788;28;20490;-68
2022/08/04 13:02:45;;;;;;;3.30;1.10;;;23.60;57.00;;;;;;6240745;28;20029;-69
2022/08/04 13:05:51;;;;;;;1.20;1.10;;;23.70;57.30;;;;;;6240117;28;20550;-68
2022/08/04 13:08:54;;;;;;;8.63;1.85;;;23.70;57.10;;;;;;6212607;28;20054;-66
2022/08/04 13:12:16;;;;;;;2.22;1.40;;;23.60;56.40;;;;;;6232705;28;20104;-68
2022/08/04 13:15:20;;;;;;;3.10;1.10;;;23.60;54.20;;;;;;6244986;28;20029;-68
2022/08/04 13:18:21;;;;;;;2.58;1.35;;;23.80;53.80;;;;;;6220281;28;20029;-68
2022/08/04 13:21:25;;;;;;;3.08;1.10;;;23.80;53.20;;;;;;6226649;28;20148;-68
2022/08/04 13:24:28;;;;;;;7.20;1.33;;;23.90;53.00;;;;;;6238013;28;20487;-68
2022/08/04 13:27:29;;;;;;;2.97;1.27;;;24.00;52.90;;;;;;6219702;28;20042;-68
2022/08/04 13:30:31;;;;;;;3.15;1.20;;;24.00;52.60;;;;;;6219973;28;20022;-68
2022/08/04 13:33:34;;;;;;;2.25;1.30;;;24.00;52.30;;;;;;6240867;28;20021;-67
2022/08/04 13:36:37;;;;;;;2.58;1.17;;;24.10;52.20;;;;;;6238577;28;20083;-68
2022/08/04 13:39:44;;;;;;;1.52;1.08;;;24.20;52.00;;;;;;6219533;28;20022;-67
2022/08/04 13:42:47;;;;;;;2.47;1.00;;;24.20;51.80;;;;;;6234650;28;20349;-66
2022/08/04 13:45:50;;;;;;;2.55;1.40;;;24.20;51.60;;;;;;6230221;28;20026;-68
2022/08/04 13:48:51;;;;;;;2.47;1.45;;;24.20;51.50;;;;;;6229751;28;20022;-68
2022/08/04 13:51:58;;;;;;;5.18;1.13;;;24.20;51.40;;;;;;6226240;28;20041;-67
2022/08/04 13:54:59;;;;;;;2.05;1.25;;;24.20;51.30;;;;;;6227780;28;20062;-68
2022/08/04 13:58:02;;;;;;;1.25;1.08;;;24.20;51.20;;;;;;6225436;28;20031;-68
2022/08/04 14:01:03;;;;;;;3.38;1.20;;;24.20;51.10;;;;;;6225416;28;20026;-68
2022/08/04 14:04:25;;;;;;;1.85;1.10;;;24.20;50.90;;;;;;6246324;28;20037;-68
2022/08/04 14:07:28;;;;;;;2.53;1.15;;;24.30;50.90;;;;;;6238956;28;20048;-68
2022/08/04 14:10:29;;;;;;;2.28;1.20;;;24.30;50.80;;;;;;6222919;28;20058;-68
2022/08/04 14:13:32;;;;;;;1.70;1.00;;;24.30;50.80;;;;;;6241463;28;20039;-68
2022/08/04 14:16:33;;;;;;;1.23;0.88;;;24.30;50.70;;;;;;6247769;28;20318;-68
2022/08/04 14:19:45;;;;;;;2.25;1.35;;;24.30;50.70;;;;;;6223647;28;20022;-68
2022/08/04 14:22:46;;;;;;;1.50;1.13;;;24.30;50.50;;;;;;6233682;28;20071;-68
2022/08/04 14:25:46;;;;;;;1.38;0.90;;;24.30;50.50;;;;;;6231744;28;20029;-68
2022/08/04 14:28:47;;;;;;;1.75;1.10;;;24.30;50.30;;;;;;6223730;28;20032;-68
2022/08/04 14:31:49;;;;;;;1.65;1.00;;;24.30;50.30;;;;;;6222648;28;20022;-68
2022/08/04 14:34:50;;;;;;;2.35;1.10;;;24.30;50.20;;;;;;6221570;28;20030;-68
2022/08/04 14:38:02;;;;;;;2.35;1.10;;;24.30;50.20;;;;;;6231724;28;20031;-68
2022/08/04 14:41:03;;;;;;;1.15;0.70;;;24.40;50.20;;;;;;6247838;28;20033;-68
2022/08/04 14:44:03;;;;;;;2.83;1.17;;;24.40;50.20;;;;;;6228802;28;20080;-68
2022/08/04 14:47:04;;;;;;;1.58;0.85;;;24.30;50.00;;;;;;6224348;28;20018;-68
2022/08/04 14:50:07;;;;;;;1.13;0.80;;;24.30;49.80;;;;;;6247829;28;20400;-68
2022/08/04 14:53:11;;;;;;;1.75;1.10;;;24.40;49.80;;;;;;6238325;28;20029;-68
2022/08/04 14:56:12;;;;;;;1.48;1.17;;;24.40;49.80;;;;;;6204630;28;20069;-68
2022/08/04 14:59:12;;;;;;;1.58;0.85;;;24.40;49.70;;;;;;6232090;28;20022;-68
2022/08/04 15:02:14;;;;;;;1.88;1.05;;;24.40;49.70;;;;;;6210248;28;20022;-68
2022/08/04 15:05:15;;;;;;;1.25;1.00;;;24.40;49.60;;;;;;6246564;28;20048;-68
2022/08/04 15:08:16;;;;;;;1.23;0.90;;;24.40;49.60;;;;;;6239161;28;20034;-68
2022/08/04 15:11:17;;;;;;;1.15;0.77;;;24.40;49.50;;;;;;6222905;28;20531;-68
2022/08/04 15:14:20;;;;;;;1.58;1.10;;;24.40;49.50;;;;;;6238241;28;20600;-67
2022/08/04 15:17:21;;;;;;;2.53;0.80;;;24.40;51.10;;;;;;6246400;28;20129;-68
2022/08/04 15:20:22;;;;;;;1.27;1.00;;;24.40;50.60;;;;;;6221229;28;20044;-67
2022/08/04 15:23:22;;;;;;;1.95;1.02;;;24.50;50.30;;;;;;6228960;28;20124;-66
2022/08/04 15:26:41;;;;;;;0.90;0.80;;;24.60;50.00;;;;;;6224357;28;20428;-67
2022/08/04 15:29:46;;;;;;;1.55;0.90;;;24.60;49.80;;;;;;6222352;28;20122;-67
2022/08/04 15:32:48;;;;;;;;;;;24.50;49.70;;;;;;6222050;28;20465;-68
2022/08/04 15:36:11;;;;;;;1.02;0.80;;;24.50;49.50;;;;;;6221816;28;20352;-68
2022/08/04 15:39:38;;;;;;;1.05;0.93;;;24.50;49.40;;;;;;6233727;28;20033;-67
2022/08/04 15:43:06;;;;;;;2.05;0.90;;;24.50;49.40;;;;;;6245142;28;20223;-67
2022/08/04 15:46:06;;;;;;;1.15;0.80;;;24.50;49.20;;;;;;6197373;28;20076;-67
2022/08/04 15:49:19;;;;;;;0.73;0.70;;;24.50;49.20;;;;;;6216403;28;20435;-67
2022/08/04 15:52:19;;;;;;;0.80;0.70;;;24.50;49.20;;;;;;6246227;28;20025;-68
2022/08/04 15:55:35;;;;;;;1.00;0.90;;;24.50;49.10;;;;;;6216341;28;20066;-67
2022/08/04 15:58:51;;;;;;;1.33;0.77;;;24.50;48.90;;;;;;6205004;28;20017;-67
2022/08/04 16:02:30;;;;;;;1.17;0.85;;;24.50;49.10;;;;;;6214666;28;20649;-66
2022/08/04 16:05:34;;;;;;;0.73;0.70;;;24.50;49.00;;;;;;6234293;28;20112;-67
2022/08/04 16:08:46;;;;;;;1.40;1.00;;;24.50;48.90;;;;;;6243145;28;20465;-67
2022/08/04 16:11:47;;;;;;;0.93;0.80;;;24.50;48.80;;;;;;6221317;28;20376;-68
2022/08/04 16:14:48;;;;;;;0.77;0.70;;;24.50;48.70;;;;;;6245700;28;20030;-67
2022/08/04 16:17:48;;;;;;;1.05;0.90;;;24.50;48.60;;;;;;6243900;28;20048;-67
2022/08/04 16:20:50;;;;;;;1.27;0.85;;;24.50;48.60;;;;;;6224055;28;20033;-67
2022/08/04 16:23:55;;;;;;;1.35;0.85;;;24.50;48.60;;;;;;6220897;28;20396;-68
2022/08/04 16:27:01;;;;;;;1.10;0.73;;;24.50;48.50;;;;;;6242744;28;20044;-67
2022/08/04 16:30:05;;;;;;;1.17;0.90;;;24.60;48.60;;;;;;6231242;28;20365;-67
2022/08/04 16:33:08;;;;;;;0.83;0.70;;;24.50;48.50;;;;;;6225472;28;20027;-68